sensor_id;sensor_type;location;lat;lon;timestamp;P1;durP1;ratioP1;P2;durP2;ratioP2
44228;SDS011;29904;51.058;5.378;2022-11-20T00:01:09;18.63;;;10.95;;
44228;SDS011;29904;51.058;5.378;2022-11-20T00:03:40;17.00;;;11.33;;
44228;SDS011;29904;51.058;5.378;2022-11-20T00:06:07;16.52;;;10.30;;
44228;SDS011;29904;51.058;5.378;2022-11-20T00:08:35;17.02;;;10.40;;
44228;SDS011;29904;51.058;5.378;2022-11-20T00:11:08;15.65;;;10.40;;
44228;SDS011;29904;51.058;5.378;2022-11-20T00:13:35;16.83;;;9.23;;
44228;SDS011;29904;51.058;5.378;2022-11-20T00:16:02;15.70;;;10.05;;
44228;SDS011;29904;51.058;5.378;2022-11-20T00:18:30;16.77;;;10.32;;
44228;SDS011;29904;51.058;5.378;2022-11-20T00:21:05;16.83;;;9.50;;
44228;SDS011;29904;51.058;5.378;2022-11-20T00:23:33;14.52;;;10.23;;
44228;SDS011;29904;51.058;5.378;2022-11-20T00:26:02;18.40;;;11.00;;
44228;SDS011;29904;51.058;5.378;2022-11-20T00:28:29;18.23;;;10.93;;
44228;SDS011;29904;51.058;5.378;2022-11-20T00:31:02;18.35;;;11.32;;
44228;SDS011;29904;51.058;5.378;2022-11-20T00:33:28;18.65;;;10.98;;
44228;SDS011;29904;51.058;5.378;2022-11-20T00:35:58;16.20;;;10.10;;
44228;SDS011;29904;51.058;5.378;2022-11-20T00:38:25;17.27;;;10.38;;
44228;SDS011;29904;51.058;5.378;2022-11-20T00:40:56;15.63;;;10.27;;
44228;SDS011;29904;51.058;5.378;2022-11-20T00:43:27;15.55;;;10.15;;
44228;SDS011;29904;51.058;5.378;2022-11-20T00:46:00;16.33;;;10.63;;
44228;SDS011;29904;51.058;5.378;2022-11-20T00:48:29;16.23;;;10.80;;
44228;SDS011;29904;51.058;5.378;2022-11-20T00:50:55;15.88;;;9.82;;
44228;SDS011;29904;51.058;5.378;2022-11-20T00:53:21;17.00;;;10.48;;
44228;SDS011;29904;51.058;5.378;2022-11-20T00:56:06;17.27;;;10.63;;
44228;SDS011;29904;51.058;5.378;2022-11-20T00:58:35;16.15;;;10.55;;
44228;SDS011;29904;51.058;5.378;2022-11-20T01:01:03;15.85;;;10.38;;
44228;SDS011;29904;51.058;5.378;2022-11-20T01:03:32;18.58;;;11.65;;
44228;SDS011;29904;51.058;5.378;2022-11-20T01:06:06;17.45;;;10.88;;
44228;SDS011;29904;51.058;5.378;2022-11-20T01:08:36;17.88;;;10.90;;
44228;SDS011;29904;51.058;5.378;2022-11-20T01:11:02;17.95;;;11.10;;
44228;SDS011;29904;51.058;5.378;2022-11-20T01:13:30;18.15;;;11.10;;
44228;SDS011;29904;51.058;5.378;2022-11-20T01:16:03;14.38;;;9.73;;
44228;SDS011;29904;51.058;5.378;2022-11-20T01:18:53;16.13;;;10.18;;
44228;SDS011;29904;51.058;5.378;2022-11-20T01:21:25;16.58;;;10.43;;
44228;SDS011;29904;51.058;5.378;2022-11-20T01:23:52;16.58;;;10.65;;
44228;SDS011;29904;51.058;5.378;2022-11-20T01:26:19;15.20;;;10.40;;
44228;SDS011;29904;51.058;5.378;2022-11-20T01:28:48;16.52;;;10.38;;
44228;SDS011;29904;51.058;5.378;2022-11-20T01:31:15;16.20;;;10.67;;
44228;SDS011;29904;51.058;5.378;2022-11-20T01:33:43;17.52;;;10.75;;
44228;SDS011;29904;51.058;5.378;2022-11-20T01:36:12;18.05;;;10.50;;
44228;SDS011;29904;51.058;5.378;2022-11-20T01:38:38;16.60;;;10.40;;
44228;SDS011;29904;51.058;5.378;2022-11-20T01:41:04;16.52;;;10.13;;
44228;SDS011;29904;51.058;5.378;2022-11-20T01:43:31;15.23;;;10.27;;
44228;SDS011;29904;51.058;5.378;2022-11-20T01:48:45;16.97;;;10.00;;
44228;SDS011;29904;51.058;5.378;2022-11-20T01:51:21;16.67;;;10.77;;
44228;SDS011;29904;51.058;5.378;2022-11-20T01:54:05;15.70;;;10.52;;
44228;SDS011;29904;51.058;5.378;2022-11-20T01:56:37;16.98;;;10.35;;
44228;SDS011;29904;51.058;5.378;2022-11-20T01:59:05;16.70;;;10.57;;
44228;SDS011;29904;51.058;5.378;2022-11-20T02:01:33;16.85;;;10.32;;
44228;SDS011;29904;51.058;5.378;2022-11-20T02:03:59;17.75;;;10.95;;
44228;SDS011;29904;51.058;5.378;2022-11-20T02:06:30;19.52;;;11.32;;
44228;SDS011;29904;51.058;5.378;2022-11-20T02:09:00;17.08;;;10.73;;
44228;SDS011;29904;51.058;5.378;2022-11-20T02:11:29;18.60;;;12.00;;
44228;SDS011;29904;51.058;5.378;2022-11-20T02:13:55;18.63;;;12.10;;
44228;SDS011;29904;51.058;5.378;2022-11-20T02:18:49;20.85;;;12.48;;
44228;SDS011;29904;51.058;5.378;2022-11-20T02:21:34;18.70;;;12.02;;
44228;SDS011;29904;51.058;5.378;2022-11-20T02:24:04;20.67;;;12.57;;
44228;SDS011;29904;51.058;5.378;2022-11-20T02:26:38;18.20;;;11.90;;
44228;SDS011;29904;51.058;5.378;2022-11-20T02:29:39;18.63;;;12.40;;
44228;SDS011;29904;51.058;5.378;2022-11-20T02:32:23;16.75;;;10.77;;
44228;SDS011;29904;51.058;5.378;2022-11-20T02:34:50;19.38;;;12.40;;
44228;SDS011;29904;51.058;5.378;2022-11-20T02:37:16;18.27;;;11.93;;
44228;SDS011;29904;51.058;5.378;2022-11-20T02:39:43;18.98;;;12.00;;
44228;SDS011;29904;51.058;5.378;2022-11-20T02:42:11;18.98;;;12.20;;
44228;SDS011;29904;51.058;5.378;2022-11-20T02:44:36;19.13;;;12.23;;
44228;SDS011;29904;51.058;5.378;2022-11-20T02:47:02;19.73;;;12.27;;
44228;SDS011;29904;51.058;5.378;2022-11-20T02:49:28;21.53;;;12.47;;
44228;SDS011;29904;51.058;5.378;2022-11-20T02:51:54;21.20;;;11.88;;
44228;SDS011;29904;51.058;5.378;2022-11-20T02:54:20;18.73;;;11.52;;
44228;SDS011;29904;51.058;5.378;2022-11-20T02:56:45;17.50;;;11.43;;
44228;SDS011;29904;51.058;5.378;2022-11-20T02:59:11;16.27;;;10.20;;
44228;SDS011;29904;51.058;5.378;2022-11-20T03:01:37;19.93;;;12.10;;
44228;SDS011;29904;51.058;5.378;2022-11-20T03:04:04;17.77;;;11.63;;
44228;SDS011;29904;51.058;5.378;2022-11-20T03:06:30;16.97;;;10.80;;
44228;SDS011;29904;51.058;5.378;2022-11-20T03:08:56;18.08;;;11.70;;
44228;SDS011;29904;51.058;5.378;2022-11-20T03:11:22;15.98;;;11.05;;
44228;SDS011;29904;51.058;5.378;2022-11-20T03:13:48;16.37;;;10.37;;
44228;SDS011;29904;51.058;5.378;2022-11-20T03:16:15;16.40;;;10.30;;
44228;SDS011;29904;51.058;5.378;2022-11-20T03:18:42;14.43;;;9.87;;
44228;SDS011;29904;51.058;5.378;2022-11-20T03:21:09;15.48;;;9.52;;
44228;SDS011;29904;51.058;5.378;2022-11-20T03:23:36;14.63;;;10.25;;
44228;SDS011;29904;51.058;5.378;2022-11-20T03:26:22;15.13;;;10.43;;
44228;SDS011;29904;51.058;5.378;2022-11-20T03:28:54;14.05;;;9.07;;
44228;SDS011;29904;51.058;5.378;2022-11-20T03:31:22;14.02;;;9.18;;
44228;SDS011;29904;51.058;5.378;2022-11-20T03:33:59;15.50;;;9.27;;
44228;SDS011;29904;51.058;5.378;2022-11-20T03:36:25;16.50;;;9.82;;
44228;SDS011;29904;51.058;5.378;2022-11-20T03:38:53;16.92;;;9.70;;
44228;SDS011;29904;51.058;5.378;2022-11-20T03:41:26;13.20;;;8.82;;
44228;SDS011;29904;51.058;5.378;2022-11-20T03:43:55;13.10;;;9.23;;
44228;SDS011;29904;51.058;5.378;2022-11-20T03:46:23;14.20;;;9.55;;
44228;SDS011;29904;51.058;5.378;2022-11-20T03:48:49;16.08;;;10.30;;
44228;SDS011;29904;51.058;5.378;2022-11-20T03:51:18;14.80;;;10.25;;
44228;SDS011;29904;51.058;5.378;2022-11-20T03:53:46;14.48;;;9.95;;
44228;SDS011;29904;51.058;5.378;2022-11-20T03:56:13;15.45;;;9.73;;
44228;SDS011;29904;51.058;5.378;2022-11-20T03:58:42;15.07;;;9.80;;
44228;SDS011;29904;51.058;5.378;2022-11-20T04:01:09;15.27;;;9.77;;
44228;SDS011;29904;51.058;5.378;2022-11-20T04:03:36;17.23;;;10.23;;
44228;SDS011;29904;51.058;5.378;2022-11-20T04:06:06;16.23;;;10.38;;
44228;SDS011;29904;51.058;5.378;2022-11-20T04:08:34;17.35;;;10.57;;
44228;SDS011;29904;51.058;5.378;2022-11-20T04:13:38;16.42;;;10.20;;
44228;SDS011;29904;51.058;5.378;2022-11-20T04:16:05;15.57;;;10.02;;
44228;SDS011;29904;51.058;5.378;2022-11-20T04:18:32;14.70;;;9.90;;
44228;SDS011;29904;51.058;5.378;2022-11-20T04:21:00;15.55;;;10.23;;
44228;SDS011;29904;51.058;5.378;2022-11-20T04:23:26;15.70;;;9.70;;
44228;SDS011;29904;51.058;5.378;2022-11-20T04:25:52;14.25;;;9.82;;
44228;SDS011;29904;51.058;5.378;2022-11-20T04:28:19;15.55;;;9.98;;
44228;SDS011;29904;51.058;5.378;2022-11-20T04:30:45;14.63;;;9.52;;
44228;SDS011;29904;51.058;5.378;2022-11-20T04:33:11;14.00;;;9.93;;
44228;SDS011;29904;51.058;5.378;2022-11-20T04:35:39;15.87;;;10.17;;
44228;SDS011;29904;51.058;5.378;2022-11-20T04:38:05;15.32;;;10.20;;
44228;SDS011;29904;51.058;5.378;2022-11-20T04:40:30;15.77;;;10.68;;
44228;SDS011;29904;51.058;5.378;2022-11-20T04:42:56;16.17;;;10.20;;
44228;SDS011;29904;51.058;5.378;2022-11-20T04:45:22;15.13;;;10.43;;
44228;SDS011;29904;51.058;5.378;2022-11-20T04:47:48;16.42;;;10.63;;
44228;SDS011;29904;51.058;5.378;2022-11-20T04:50:16;17.05;;;11.20;;
44228;SDS011;29904;51.058;5.378;2022-11-20T04:52:41;17.07;;;11.07;;
44228;SDS011;29904;51.058;5.378;2022-11-20T04:55:07;14.73;;;10.10;;
44228;SDS011;29904;51.058;5.378;2022-11-20T04:57:35;16.80;;;11.05;;
44228;SDS011;29904;51.058;5.378;2022-11-20T05:00:00;17.73;;;10.80;;
44228;SDS011;29904;51.058;5.378;2022-11-20T05:02:26;15.93;;;10.25;;
44228;SDS011;29904;51.058;5.378;2022-11-20T05:04:52;16.10;;;10.55;;
44228;SDS011;29904;51.058;5.378;2022-11-20T05:07:18;18.20;;;11.70;;
44228;SDS011;29904;51.058;5.378;2022-11-20T05:09:44;17.37;;;11.43;;
44228;SDS011;29904;51.058;5.378;2022-11-20T05:12:11;18.57;;;11.47;;
44228;SDS011;29904;51.058;5.378;2022-11-20T05:14:37;17.93;;;11.60;;
44228;SDS011;29904;51.058;5.378;2022-11-20T05:17:04;18.52;;;11.63;;
44228;SDS011;29904;51.058;5.378;2022-11-20T05:19:30;17.33;;;11.43;;
44228;SDS011;29904;51.058;5.378;2022-11-20T05:21:56;18.13;;;11.83;;
44228;SDS011;29904;51.058;5.378;2022-11-20T05:24:22;18.83;;;12.10;;
44228;SDS011;29904;51.058;5.378;2022-11-20T05:26:47;20.38;;;13.02;;
44228;SDS011;29904;51.058;5.378;2022-11-20T05:29:13;20.40;;;12.93;;
44228;SDS011;29904;51.058;5.378;2022-11-20T05:31:41;20.80;;;12.40;;
44228;SDS011;29904;51.058;5.378;2022-11-20T05:34:07;22.77;;;13.67;;
44228;SDS011;29904;51.058;5.378;2022-11-20T05:36:33;23.65;;;13.48;;
44228;SDS011;29904;51.058;5.378;2022-11-20T05:38:59;23.98;;;14.32;;
44228;SDS011;29904;51.058;5.378;2022-11-20T05:41:24;24.98;;;14.25;;
44228;SDS011;29904;51.058;5.378;2022-11-20T05:43:50;28.00;;;15.23;;
44228;SDS011;29904;51.058;5.378;2022-11-20T05:46:17;25.80;;;13.85;;
44228;SDS011;29904;51.058;5.378;2022-11-20T05:48:45;29.95;;;15.63;;
44228;SDS011;29904;51.058;5.378;2022-11-20T05:51:13;33.35;;;16.50;;
44228;SDS011;29904;51.058;5.378;2022-11-20T05:53:41;35.15;;;16.20;;
44228;SDS011;29904;51.058;5.378;2022-11-20T05:56:10;33.33;;;15.90;;
44228;SDS011;29904;51.058;5.378;2022-11-20T05:58:37;37.40;;;16.75;;
44228;SDS011;29904;51.058;5.378;2022-11-20T06:01:22;31.70;;;16.48;;
44228;SDS011;29904;51.058;5.378;2022-11-20T06:03:49;31.88;;;16.63;;
44228;SDS011;29904;51.058;5.378;2022-11-20T06:06:16;35.60;;;16.60;;
44228;SDS011;29904;51.058;5.378;2022-11-20T06:08:43;31.88;;;16.83;;
44228;SDS011;29904;51.058;5.378;2022-11-20T06:11:10;32.05;;;15.82;;
44228;SDS011;29904;51.058;5.378;2022-11-20T06:13:38;31.02;;;16.23;;
44228;SDS011;29904;51.058;5.378;2022-11-20T06:16:04;36.58;;;16.40;;
44228;SDS011;29904;51.058;5.378;2022-11-20T06:18:30;34.40;;;16.25;;
44228;SDS011;29904;51.058;5.378;2022-11-20T06:21:06;31.42;;;15.57;;
44228;SDS011;29904;51.058;5.378;2022-11-20T06:23:35;32.38;;;16.92;;
44228;SDS011;29904;51.058;5.378;2022-11-20T06:26:06;30.38;;;15.55;;
44228;SDS011;29904;51.058;5.378;2022-11-20T06:28:33;31.37;;;15.20;;
44228;SDS011;29904;51.058;5.378;2022-11-20T06:31:01;31.63;;;15.93;;
44228;SDS011;29904;51.058;5.378;2022-11-20T06:33:27;25.53;;;13.73;;
44228;SDS011;29904;51.058;5.378;2022-11-20T06:35:55;24.45;;;13.40;;
44228;SDS011;29904;51.058;5.378;2022-11-20T06:38:22;23.92;;;13.45;;
44228;SDS011;29904;51.058;5.378;2022-11-20T06:40:48;22.20;;;12.30;;
44228;SDS011;29904;51.058;5.378;2022-11-20T06:43:14;24.13;;;13.45;;
44228;SDS011;29904;51.058;5.378;2022-11-20T06:45:41;24.67;;;13.27;;
44228;SDS011;29904;51.058;5.378;2022-11-20T06:48:07;22.00;;;12.02;;
44228;SDS011;29904;51.058;5.378;2022-11-20T06:50:34;20.38;;;12.27;;
44228;SDS011;29904;51.058;5.378;2022-11-20T06:53:02;24.00;;;13.68;;
44228;SDS011;29904;51.058;5.378;2022-11-20T06:55:29;26.95;;;14.88;;
44228;SDS011;29904;51.058;5.378;2022-11-20T06:57:55;25.43;;;14.80;;
44228;SDS011;29904;51.058;5.378;2022-11-20T07:00:21;24.70;;;13.85;;
44228;SDS011;29904;51.058;5.378;2022-11-20T07:02:47;23.97;;;14.00;;
44228;SDS011;29904;51.058;5.378;2022-11-20T07:05:12;25.30;;;13.93;;
44228;SDS011;29904;51.058;5.378;2022-11-20T07:07:38;24.50;;;14.00;;
44228;SDS011;29904;51.058;5.378;2022-11-20T07:10:04;22.20;;;13.23;;
44228;SDS011;29904;51.058;5.378;2022-11-20T07:12:30;23.52;;;13.45;;
44228;SDS011;29904;51.058;5.378;2022-11-20T07:14:56;24.13;;;14.47;;
44228;SDS011;29904;51.058;5.378;2022-11-20T07:17:21;24.30;;;13.60;;
44228;SDS011;29904;51.058;5.378;2022-11-20T07:19:47;23.20;;;13.57;;
44228;SDS011;29904;51.058;5.378;2022-11-20T07:22:13;25.48;;;14.25;;
44228;SDS011;29904;51.058;5.378;2022-11-20T07:24:39;23.10;;;14.18;;
44228;SDS011;29904;51.058;5.378;2022-11-20T07:27:04;23.52;;;14.00;;
44228;SDS011;29904;51.058;5.378;2022-11-20T07:29:30;23.25;;;14.40;;
44228;SDS011;29904;51.058;5.378;2022-11-20T07:31:56;26.13;;;14.65;;
44228;SDS011;29904;51.058;5.378;2022-11-20T07:34:22;23.87;;;13.80;;
44228;SDS011;29904;51.058;5.378;2022-11-20T07:36:48;24.90;;;14.77;;
44228;SDS011;29904;51.058;5.378;2022-11-20T07:39:13;27.23;;;15.00;;
44228;SDS011;29904;51.058;5.378;2022-11-20T07:41:39;26.58;;;15.25;;
44228;SDS011;29904;51.058;5.378;2022-11-20T07:44:05;26.15;;;15.18;;
44228;SDS011;29904;51.058;5.378;2022-11-20T07:46:30;25.10;;;14.40;;
44228;SDS011;29904;51.058;5.378;2022-11-20T07:48:58;28.25;;;15.70;;
44228;SDS011;29904;51.058;5.378;2022-11-20T07:51:24;27.27;;;15.77;;
44228;SDS011;29904;51.058;5.378;2022-11-20T07:53:51;28.08;;;16.05;;
44228;SDS011;29904;51.058;5.378;2022-11-20T07:56:17;29.08;;;16.63;;
44228;SDS011;29904;51.058;5.378;2022-11-20T07:58:42;30.75;;;16.67;;
44228;SDS011;29904;51.058;5.378;2022-11-20T08:01:08;27.10;;;15.95;;
44228;SDS011;29904;51.058;5.378;2022-11-20T08:03:34;30.20;;;16.67;;
44228;SDS011;29904;51.058;5.378;2022-11-20T08:06:02;32.03;;;17.67;;
44228;SDS011;29904;51.058;5.378;2022-11-20T08:08:28;28.23;;;16.23;;
44228;SDS011;29904;51.058;5.378;2022-11-20T08:10:56;30.35;;;16.45;;
44228;SDS011;29904;51.058;5.378;2022-11-20T08:13:41;28.55;;;15.98;;
44228;SDS011;29904;51.058;5.378;2022-11-20T08:16:25;31.67;;;16.65;;
44228;SDS011;29904;51.058;5.378;2022-11-20T08:18:51;28.50;;;16.77;;
44228;SDS011;29904;51.058;5.378;2022-11-20T08:21:17;28.67;;;15.93;;
44228;SDS011;29904;51.058;5.378;2022-11-20T08:23:42;27.83;;;16.00;;
44228;SDS011;29904;51.058;5.378;2022-11-20T08:26:08;31.10;;;16.70;;
44228;SDS011;29904;51.058;5.378;2022-11-20T08:28:36;30.30;;;16.98;;
44228;SDS011;29904;51.058;5.378;2022-11-20T08:31:02;28.50;;;16.10;;
44228;SDS011;29904;51.058;5.378;2022-11-20T08:33:28;29.83;;;15.98;;
44228;SDS011;29904;51.058;5.378;2022-11-20T08:35:58;31.50;;;17.90;;
44228;SDS011;29904;51.058;5.378;2022-11-20T08:38:26;32.50;;;17.15;;
44228;SDS011;29904;51.058;5.378;2022-11-20T08:40:51;32.83;;;17.80;;
44228;SDS011;29904;51.058;5.378;2022-11-20T08:43:39;34.28;;;17.83;;
44228;SDS011;29904;51.058;5.378;2022-11-20T08:46:05;30.80;;;16.70;;
44228;SDS011;29904;51.058;5.378;2022-11-20T08:48:33;29.75;;;16.58;;
44228;SDS011;29904;51.058;5.378;2022-11-20T08:50:59;32.35;;;18.02;;
44228;SDS011;29904;51.058;5.378;2022-11-20T08:53:26;30.70;;;17.02;;
44228;SDS011;29904;51.058;5.378;2022-11-20T08:55:52;31.67;;;17.37;;
44228;SDS011;29904;51.058;5.378;2022-11-20T08:58:18;30.07;;;16.17;;
44228;SDS011;29904;51.058;5.378;2022-11-20T09:00:47;30.10;;;16.40;;
44228;SDS011;29904;51.058;5.378;2022-11-20T09:03:13;32.17;;;17.40;;
44228;SDS011;29904;51.058;5.378;2022-11-20T09:05:39;32.00;;;17.27;;
44228;SDS011;29904;51.058;5.378;2022-11-20T09:08:05;31.97;;;17.07;;
44228;SDS011;29904;51.058;5.378;2022-11-20T09:10:32;33.30;;;17.95;;
44228;SDS011;29904;51.058;5.378;2022-11-20T09:12:58;33.47;;;17.33;;
44228;SDS011;29904;51.058;5.378;2022-11-20T09:15:24;34.67;;;18.33;;
44228;SDS011;29904;51.058;5.378;2022-11-20T09:20:18;32.65;;;17.75;;
44228;SDS011;29904;51.058;5.378;2022-11-20T09:22:44;29.90;;;16.67;;
44228;SDS011;29904;51.058;5.378;2022-11-20T09:25:12;29.65;;;16.23;;
44228;SDS011;29904;51.058;5.378;2022-11-20T09:27:40;29.85;;;15.95;;
44228;SDS011;29904;51.058;5.378;2022-11-20T09:30:08;31.17;;;16.90;;
44228;SDS011;29904;51.058;5.378;2022-11-20T09:32:34;33.70;;;17.30;;
44228;SDS011;29904;51.058;5.378;2022-11-20T09:35:00;32.30;;;17.33;;
44228;SDS011;29904;51.058;5.378;2022-11-20T09:37:26;30.85;;;16.83;;
44228;SDS011;29904;51.058;5.378;2022-11-20T09:39:52;33.87;;;18.67;;
44228;SDS011;29904;51.058;5.378;2022-11-20T09:50:52;37.88;;;22.20;;
44228;SDS011;29904;51.058;5.378;2022-11-20T09:56:28;33.92;;;17.63;;
44228;SDS011;29904;51.058;5.378;2022-11-20T09:58:54;34.50;;;18.42;;
44228;SDS011;29904;51.058;5.378;2022-11-20T10:01:26;32.03;;;18.20;;
44228;SDS011;29904;51.058;5.378;2022-11-20T10:03:56;33.90;;;19.65;;
44228;SDS011;29904;51.058;5.378;2022-11-20T10:09:35;37.10;;;19.77;;
44228;SDS011;29904;51.058;5.378;2022-11-20T10:12:06;30.08;;;16.33;;
44228;SDS011;29904;51.058;5.378;2022-11-20T10:33:55;37.58;;;17.85;;
44228;SDS011;29904;51.058;5.378;2022-11-20T10:36:26;36.28;;;18.00;;
44228;SDS011;29904;51.058;5.378;2022-11-20T10:38:59;38.70;;;17.88;;
44228;SDS011;29904;51.058;5.378;2022-11-20T10:41:31;41.95;;;19.27;;
44228;SDS011;29904;51.058;5.378;2022-11-20T10:44:01;39.60;;;18.42;;
44228;SDS011;29904;51.058;5.378;2022-11-20T10:46:32;45.22;;;20.80;;
44228;SDS011;29904;51.058;5.378;2022-11-20T10:49:02;40.88;;;19.25;;
44228;SDS011;29904;51.058;5.378;2022-11-20T10:51:31;41.72;;;19.67;;
44228;SDS011;29904;51.058;5.378;2022-11-20T11:00:08;44.13;;;19.92;;
44228;SDS011;29904;51.058;5.378;2022-11-20T11:02:39;43.38;;;20.45;;
44228;SDS011;29904;51.058;5.378;2022-11-20T11:05:27;41.03;;;17.52;;
44228;SDS011;29904;51.058;5.378;2022-11-20T11:08:02;45.38;;;20.67;;
44228;SDS011;29904;51.058;5.378;2022-11-20T11:13:18;38.33;;;17.70;;
44228;SDS011;29904;51.058;5.378;2022-11-20T11:15:45;38.45;;;18.30;;
44228;SDS011;29904;51.058;5.378;2022-11-20T11:18:11;46.10;;;19.03;;
44228;SDS011;29904;51.058;5.378;2022-11-20T11:20:50;41.03;;;18.57;;
44228;SDS011;29904;51.058;5.378;2022-11-20T11:26:22;66.28;;;38.30;;
44228;SDS011;29904;51.058;5.378;2022-11-20T11:28:58;47.53;;;23.50;;
44228;SDS011;29904;51.058;5.378;2022-11-20T11:31:28;42.65;;;18.20;;
44228;SDS011;29904;51.058;5.378;2022-11-20T11:34:14;47.30;;;21.15;;
44228;SDS011;29904;51.058;5.378;2022-11-20T11:36:41;47.53;;;22.08;;
44228;SDS011;29904;51.058;5.378;2022-11-20T11:39:14;43.88;;;20.33;;
44228;SDS011;29904;51.058;5.378;2022-11-20T11:41:42;44.10;;;19.45;;
44228;SDS011;29904;51.058;5.378;2022-11-20T11:47:08;44.97;;;19.40;;
44228;SDS011;29904;51.058;5.378;2022-11-20T11:52:58;50.45;;;22.38;;
44228;SDS011;29904;51.058;5.378;2022-11-20T11:58:41;39.42;;;19.90;;
44228;SDS011;29904;51.058;5.378;2022-11-20T12:06:32;45.50;;;23.63;;
44228;SDS011;29904;51.058;5.378;2022-11-20T12:09:05;38.53;;;17.88;;
44228;SDS011;29904;51.058;5.378;2022-11-20T12:17:00;37.45;;;20.05;;
44228;SDS011;29904;51.058;5.378;2022-11-20T12:19:26;40.70;;;21.50;;
44228;SDS011;29904;51.058;5.378;2022-11-20T12:24:49;47.72;;;27.48;;
44228;SDS011;29904;51.058;5.378;2022-11-20T12:30:26;49.60;;;23.17;;
44228;SDS011;29904;51.058;5.378;2022-11-20T12:55:41;23.45;;;12.73;;
44228;SDS011;29904;51.058;5.378;2022-11-20T12:58:12;22.75;;;12.38;;
44228;SDS011;29904;51.058;5.378;2022-11-20T13:00:47;21.98;;;11.57;;
44228;SDS011;29904;51.058;5.378;2022-11-20T13:03:27;21.63;;;11.07;;
44228;SDS011;29904;51.058;5.378;2022-11-20T13:08:36;23.48;;;11.93;;
44228;SDS011;29904;51.058;5.378;2022-11-20T13:13:56;22.08;;;10.65;;
44228;SDS011;29904;51.058;5.378;2022-11-20T13:16:30;19.80;;;10.23;;
44228;SDS011;29904;51.058;5.378;2022-11-20T13:19:00;15.70;;;8.88;;
44228;SDS011;29904;51.058;5.378;2022-11-20T13:21:41;18.50;;;8.98;;
44228;SDS011;29904;51.058;5.378;2022-11-20T13:26:43;14.23;;;7.20;;
44228;SDS011;29904;51.058;5.378;2022-11-20T13:29:11;12.03;;;6.80;;
44228;SDS011;29904;51.058;5.378;2022-11-20T13:31:45;13.40;;;6.72;;
44228;SDS011;29904;51.058;5.378;2022-11-20T13:34:25;14.15;;;6.85;;
44228;SDS011;29904;51.058;5.378;2022-11-20T13:36:53;10.93;;;5.85;;
44228;SDS011;29904;51.058;5.378;2022-11-20T13:39:24;9.45;;;4.63;;
44228;SDS011;29904;51.058;5.378;2022-11-20T13:42:01;7.72;;;3.92;;
44228;SDS011;29904;51.058;5.378;2022-11-20T13:44:51;8.48;;;3.47;;
44228;SDS011;29904;51.058;5.378;2022-11-20T13:47:20;7.33;;;3.10;;
44228;SDS011;29904;51.058;5.378;2022-11-20T13:49:51;4.65;;;2.08;;
44228;SDS011;29904;51.058;5.378;2022-11-20T14:00:48;2.97;;;1.30;;
44228;SDS011;29904;51.058;5.378;2022-11-20T14:03:23;5.00;;;1.60;;
44228;SDS011;29904;51.058;5.378;2022-11-20T14:05:59;4.38;;;1.40;;
44228;SDS011;29904;51.058;5.378;2022-11-20T14:08:52;3.20;;;1.70;;
44228;SDS011;29904;51.058;5.378;2022-11-20T14:11:18;3.75;;;1.40;;
44228;SDS011;29904;51.058;5.378;2022-11-20T14:13:59;2.50;;;1.02;;
44228;SDS011;29904;51.058;5.378;2022-11-20T14:16:36;3.58;;;1.50;;
44228;SDS011;29904;51.058;5.378;2022-11-20T14:21:54;4.68;;;1.50;;
44228;SDS011;29904;51.058;5.378;2022-11-20T14:24:40;4.97;;;1.50;;
44228;SDS011;29904;51.058;5.378;2022-11-20T14:27:19;3.85;;;1.90;;
44228;SDS011;29904;51.058;5.378;2022-11-20T14:29:47;6.22;;;2.20;;
44228;SDS011;29904;51.058;5.378;2022-11-20T14:32:15;5.65;;;2.17;;
44228;SDS011;29904;51.058;5.378;2022-11-20T14:34:48;8.27;;;3.80;;
44228;SDS011;29904;51.058;5.378;2022-11-20T14:37:23;4.22;;;2.30;;
44228;SDS011;29904;51.058;5.378;2022-11-20T14:39:54;5.95;;;2.22;;
44228;SDS011;29904;51.058;5.378;2022-11-20T14:42:24;5.18;;;2.60;;
44228;SDS011;29904;51.058;5.378;2022-11-20T14:44:52;4.55;;;2.30;;
44228;SDS011;29904;51.058;5.378;2022-11-20T14:47:22;6.20;;;2.87;;
44228;SDS011;29904;51.058;5.378;2022-11-20T14:49:50;3.53;;;1.73;;
44228;SDS011;29904;51.058;5.378;2022-11-20T14:52:18;6.28;;;2.25;;
44228;SDS011;29904;51.058;5.378;2022-11-20T14:54:55;4.85;;;1.85;;
44228;SDS011;29904;51.058;5.378;2022-11-20T15:00:05;4.70;;;1.98;;
44228;SDS011;29904;51.058;5.378;2022-11-20T15:02:41;4.18;;;2.13;;
44228;SDS011;29904;51.058;5.378;2022-11-20T15:05:08;6.43;;;3.30;;
44228;SDS011;29904;51.058;5.378;2022-11-20T15:07:36;6.93;;;3.80;;
44228;SDS011;29904;51.058;5.378;2022-11-20T15:12:33;5.43;;;2.30;;
44228;SDS011;29904;51.058;5.378;2022-11-20T15:15:02;4.97;;;1.92;;
44228;SDS011;29904;51.058;5.378;2022-11-20T15:17:30;11.68;;;5.03;;
44228;SDS011;29904;51.058;5.378;2022-11-20T15:19:57;8.07;;;4.22;;
44228;SDS011;29904;51.058;5.378;2022-11-20T15:22:26;8.18;;;4.22;;
44228;SDS011;29904;51.058;5.378;2022-11-20T15:24:51;5.07;;;2.30;;
44228;SDS011;29904;51.058;5.378;2022-11-20T15:27:17;4.80;;;2.17;;
44228;SDS011;29904;51.058;5.378;2022-11-20T15:29:43;4.03;;;2.10;;
44228;SDS011;29904;51.058;5.378;2022-11-20T15:32:09;6.33;;;2.63;;
44228;SDS011;29904;51.058;5.378;2022-11-20T15:34:37;18.13;;;8.18;;
44228;SDS011;29904;51.058;5.378;2022-11-20T15:37:02;5.90;;;3.10;;
44228;SDS011;29904;51.058;5.378;2022-11-20T15:39:28;4.50;;;2.00;;
44228;SDS011;29904;51.058;5.378;2022-11-20T15:41:54;3.70;;;1.80;;
44228;SDS011;29904;51.058;5.378;2022-11-20T15:44:19;3.93;;;2.23;;
44228;SDS011;29904;51.058;5.378;2022-11-20T15:46:45;4.13;;;2.42;;
44228;SDS011;29904;51.058;5.378;2022-11-20T15:49:15;4.32;;;2.30;;
44228;SDS011;29904;51.058;5.378;2022-11-20T15:51:44;5.10;;;2.40;;
44228;SDS011;29904;51.058;5.378;2022-11-20T15:54:13;4.50;;;2.00;;
44228;SDS011;29904;51.058;5.378;2022-11-20T15:56:47;4.22;;;2.20;;
44228;SDS011;29904;51.058;5.378;2022-11-20T15:59:14;4.93;;;2.15;;
44228;SDS011;29904;51.058;5.378;2022-11-20T16:01:40;5.13;;;2.30;;
44228;SDS011;29904;51.058;5.378;2022-11-20T16:04:09;3.92;;;2.45;;
44228;SDS011;29904;51.058;5.378;2022-11-20T16:06:40;5.32;;;2.50;;
44228;SDS011;29904;51.058;5.378;2022-11-20T16:09:06;5.30;;;2.50;;
44228;SDS011;29904;51.058;5.378;2022-11-20T16:11:32;6.10;;;2.60;;
44228;SDS011;29904;51.058;5.378;2022-11-20T16:13:58;3.95;;;2.30;;
44228;SDS011;29904;51.058;5.378;2022-11-20T16:16:42;4.32;;;2.15;;
44228;SDS011;29904;51.058;5.378;2022-11-20T16:19:14;3.10;;;1.73;;
44228;SDS011;29904;51.058;5.378;2022-11-20T16:21:40;4.00;;;2.00;;
44228;SDS011;29904;51.058;5.378;2022-11-20T16:24:07;2.72;;;1.70;;
44228;SDS011;29904;51.058;5.378;2022-11-20T16:26:37;2.70;;;1.90;;
44228;SDS011;29904;51.058;5.378;2022-11-20T16:29:03;2.70;;;2.10;;
44228;SDS011;29904;51.058;5.378;2022-11-20T16:31:30;4.18;;;2.50;;
44228;SDS011;29904;51.058;5.378;2022-11-20T16:33:59;4.85;;;2.70;;
44228;SDS011;29904;51.058;5.378;2022-11-20T16:36:27;3.67;;;2.47;;
44228;SDS011;29904;51.058;5.378;2022-11-20T16:38:54;4.22;;;2.60;;
44228;SDS011;29904;51.058;5.378;2022-11-20T16:41:25;4.63;;;2.60;;
44228;SDS011;29904;51.058;5.378;2022-11-20T16:43:53;4.00;;;2.60;;
44228;SDS011;29904;51.058;5.378;2022-11-20T16:46:25;4.90;;;3.05;;
44228;SDS011;29904;51.058;5.378;2022-11-20T16:48:54;7.20;;;3.05;;